sensor_id;sensor_type;location;lat;lon;timestamp;P1;durP1;ratioP1;P2;durP2;ratioP2
17832;SDS011;9041;49.718;21.798;2023-08-06T00:00:17;40.72;;;15.50;;
17832;SDS011;9041;49.718;21.798;2023-08-06T00:02:45;36.72;;;15.02;;
17832;SDS011;9041;49.718;21.798;2023-08-06T00:05:12;33.33;;;15.90;;
17832;SDS011;9041;49.718;21.798;2023-08-06T00:07:39;32.17;;;15.27;;
17832;SDS011;9041;49.718;21.798;2023-08-06T00:10:06;35.20;;;15.30;;
17832;SDS011;9041;49.718;21.798;2023-08-06T00:12:33;35.50;;;15.07;;
17832;SDS011;9041;49.718;21.798;2023-08-06T00:15:00;33.95;;;15.38;;
17832;SDS011;9041;49.718;21.798;2023-08-06T00:17:26;32.00;;;14.70;;
17832;SDS011;9041;49.718;21.798;2023-08-06T00:19:54;27.50;;;13.38;;
17832;SDS011;9041;49.718;21.798;2023-08-06T00:22:21;27.65;;;14.15;;
17832;SDS011;9041;49.718;21.798;2023-08-06T00:24:48;30.63;;;14.02;;
17832;SDS011;9041;49.718;21.798;2023-08-06T00:27:14;32.97;;;15.35;;
17832;SDS011;9041;49.718;21.798;2023-08-06T00:29:41;28.55;;;13.52;;
17832;SDS011;9041;49.718;21.798;2023-08-06T00:32:07;30.38;;;14.13;;
17832;SDS011;9041;49.718;21.798;2023-08-06T00:34:34;31.67;;;12.98;;
17832;SDS011;9041;49.718;21.798;2023-08-06T00:37:02;30.08;;;14.07;;
17832;SDS011;9041;49.718;21.798;2023-08-06T00:39:29;32.17;;;13.57;;
17832;SDS011;9041;49.718;21.798;2023-08-06T00:41:56;32.40;;;13.43;;
17832;SDS011;9041;49.718;21.798;2023-08-06T00:44:23;26.08;;;12.63;;
17832;SDS011;9041;49.718;21.798;2023-08-06T00:46:50;33.63;;;14.45;;
17832;SDS011;9041;49.718;21.798;2023-08-06T00:49:17;29.65;;;12.95;;
17832;SDS011;9041;49.718;21.798;2023-08-06T00:51:44;31.02;;;12.93;;
17832;SDS011;9041;49.718;21.798;2023-08-06T00:54:12;28.40;;;12.65;;
17832;SDS011;9041;49.718;21.798;2023-08-06T00:56:38;28.88;;;13.32;;
17832;SDS011;9041;49.718;21.798;2023-08-06T00:59:06;29.00;;;13.35;;
17832;SDS011;9041;49.718;21.798;2023-08-06T01:01:32;33.40;;;13.57;;
17832;SDS011;9041;49.718;21.798;2023-08-06T01:03:59;28.80;;;13.73;;
17832;SDS011;9041;49.718;21.798;2023-08-06T01:06:29;31.15;;;12.48;;
17832;SDS011;9041;49.718;21.798;2023-08-06T01:09:03;29.33;;;12.57;;
17832;SDS011;9041;49.718;21.798;2023-08-06T01:11:43;30.33;;;14.15;;
17832;SDS011;9041;49.718;21.798;2023-08-06T01:14:15;29.05;;;13.40;;
17832;SDS011;9041;49.718;21.798;2023-08-06T01:16:47;31.75;;;13.65;;
17832;SDS011;9041;49.718;21.798;2023-08-06T01:19:18;31.00;;;13.75;;
17832;SDS011;9041;49.718;21.798;2023-08-06T01:21:46;29.08;;;13.63;;
17832;SDS011;9041;49.718;21.798;2023-08-06T01:24:13;32.20;;;13.05;;
17832;SDS011;9041;49.718;21.798;2023-08-06T01:26:41;34.08;;;13.75;;
17832;SDS011;9041;49.718;21.798;2023-08-06T01:29:10;29.40;;;13.07;;
17832;SDS011;9041;49.718;21.798;2023-08-06T01:31:39;29.35;;;13.15;;
17832;SDS011;9041;49.718;21.798;2023-08-06T01:34:09;30.02;;;13.85;;
17832;SDS011;9041;49.718;21.798;2023-08-06T01:36:37;29.95;;;13.20;;
17832;SDS011;9041;49.718;21.798;2023-08-06T01:39:05;27.00;;;13.15;;
17832;SDS011;9041;49.718;21.798;2023-08-06T01:41:32;26.48;;;12.75;;
17832;SDS011;9041;49.718;21.798;2023-08-06T01:43:59;28.60;;;13.52;;
17832;SDS011;9041;49.718;21.798;2023-08-06T01:46:26;25.17;;;12.35;;
17832;SDS011;9041;49.718;21.798;2023-08-06T01:48:52;28.58;;;13.88;;
17832;SDS011;9041;49.718;21.798;2023-08-06T01:51:19;31.77;;;14.02;;
17832;SDS011;9041;49.718;21.798;2023-08-06T01:53:46;32.00;;;13.18;;
17832;SDS011;9041;49.718;21.798;2023-08-06T01:56:14;32.10;;;13.98;;
17832;SDS011;9041;49.718;21.798;2023-08-06T01:58:41;28.55;;;12.88;;
17832;SDS011;9041;49.718;21.798;2023-08-06T02:01:08;33.22;;;13.45;;
17832;SDS011;9041;49.718;21.798;2023-08-06T02:03:34;34.00;;;14.25;;
17832;SDS011;9041;49.718;21.798;2023-08-06T02:06:01;29.75;;;12.88;;
17832;SDS011;9041;49.718;21.798;2023-08-06T02:08:28;31.40;;;13.07;;
17832;SDS011;9041;49.718;21.798;2023-08-06T02:10:55;30.10;;;12.40;;
17832;SDS011;9041;49.718;21.798;2023-08-06T02:13:24;27.13;;;11.25;;
17832;SDS011;9041;49.718;21.798;2023-08-06T02:15:51;24.98;;;11.60;;
17832;SDS011;9041;49.718;21.798;2023-08-06T02:18:17;28.17;;;12.85;;
17832;SDS011;9041;49.718;21.798;2023-08-06T02:20:54;30.05;;;13.05;;
17832;SDS011;9041;49.718;21.798;2023-08-06T02:23:21;23.25;;;12.02;;
17832;SDS011;9041;49.718;21.798;2023-08-06T02:25:48;25.30;;;12.30;;
17832;SDS011;9041;49.718;21.798;2023-08-06T02:28:14;23.35;;;12.25;;
17832;SDS011;9041;49.718;21.798;2023-08-06T02:30:50;26.30;;;11.88;;
17832;SDS011;9041;49.718;21.798;2023-08-06T02:33:17;23.15;;;11.90;;
17832;SDS011;9041;49.718;21.798;2023-08-06T02:35:43;29.52;;;12.48;;
17832;SDS011;9041;49.718;21.798;2023-08-06T02:38:10;28.73;;;13.10;;
17832;SDS011;9041;49.718;21.798;2023-08-06T02:40:36;30.65;;;13.57;;
17832;SDS011;9041;49.718;21.798;2023-08-06T02:43:09;30.65;;;14.23;;
17832;SDS011;9041;49.718;21.798;2023-08-06T02:45:36;32.50;;;13.90;;
17832;SDS011;9041;49.718;21.798;2023-08-06T02:48:04;38.55;;;15.27;;
17832;SDS011;9041;49.718;21.798;2023-08-06T02:50:35;33.42;;;13.95;;
17832;SDS011;9041;49.718;21.798;2023-08-06T02:53:04;40.65;;;15.27;;
17832;SDS011;9041;49.718;21.798;2023-08-06T02:55:30;34.67;;;14.77;;
17832;SDS011;9041;49.718;21.798;2023-08-06T02:57:57;34.55;;;14.70;;
17832;SDS011;9041;49.718;21.798;2023-08-06T03:00:24;35.60;;;14.35;;
17832;SDS011;9041;49.718;21.798;2023-08-06T03:02:52;37.15;;;14.52;;
17832;SDS011;9041;49.718;21.798;2023-08-06T03:05:20;33.83;;;15.48;;
17832;SDS011;9041;49.718;21.798;2023-08-06T03:07:47;28.77;;;14.00;;
17832;SDS011;9041;49.718;21.798;2023-08-06T03:10:13;29.13;;;13.65;;
17832;SDS011;9041;49.718;21.798;2023-08-06T03:12:40;23.10;;;12.82;;
17832;SDS011;9041;49.718;21.798;2023-08-06T03:15:08;28.52;;;13.65;;
17832;SDS011;9041;49.718;21.798;2023-08-06T03:17:35;25.23;;;13.73;;
17832;SDS011;9041;49.718;21.798;2023-08-06T03:20:02;26.17;;;13.18;;
17832;SDS011;9041;49.718;21.798;2023-08-06T03:22:30;32.08;;;14.40;;
17832;SDS011;9041;49.718;21.798;2023-08-06T03:24:57;35.35;;;15.10;;
17832;SDS011;9041;49.718;21.798;2023-08-06T03:27:24;34.72;;;15.13;;
17832;SDS011;9041;49.718;21.798;2023-08-06T03:29:50;33.10;;;15.18;;
17832;SDS011;9041;49.718;21.798;2023-08-06T03:32:17;27.85;;;14.55;;
17832;SDS011;9041;49.718;21.798;2023-08-06T03:34:43;29.80;;;14.80;;
17832;SDS011;9041;49.718;21.798;2023-08-06T03:37:10;34.30;;;15.25;;
17832;SDS011;9041;49.718;21.798;2023-08-06T03:39:38;33.95;;;15.27;;
17832;SDS011;9041;49.718;21.798;2023-08-06T03:42:05;36.70;;;14.75;;
17832;SDS011;9041;49.718;21.798;2023-08-06T03:44:31;33.90;;;15.13;;
17832;SDS011;9041;49.718;21.798;2023-08-06T03:46:58;35.20;;;15.38;;
17832;SDS011;9041;49.718;21.798;2023-08-06T03:49:25;34.70;;;15.07;;
17832;SDS011;9041;49.718;21.798;2023-08-06T03:51:51;33.85;;;16.35;;
17832;SDS011;9041;49.718;21.798;2023-08-06T03:54:18;34.60;;;16.70;;
17832;SDS011;9041;49.718;21.798;2023-08-06T03:56:45;36.85;;;16.38;;
17832;SDS011;9041;49.718;21.798;2023-08-06T03:59:12;41.72;;;16.48;;
17832;SDS011;9041;49.718;21.798;2023-08-06T04:01:39;33.13;;;15.32;;
17832;SDS011;9041;49.718;21.798;2023-08-06T04:04:05;31.83;;;15.23;;
17832;SDS011;9041;49.718;21.798;2023-08-06T04:06:32;30.83;;;14.93;;
17832;SDS011;9041;49.718;21.798;2023-08-06T04:08:58;30.15;;;14.63;;
17832;SDS011;9041;49.718;21.798;2023-08-06T04:11:25;29.90;;;14.52;;
17832;SDS011;9041;49.718;21.798;2023-08-06T04:13:53;28.67;;;15.93;;
17832;SDS011;9041;49.718;21.798;2023-08-06T04:16:20;26.23;;;15.05;;
17832;SDS011;9041;49.718;21.798;2023-08-06T04:18:47;27.40;;;15.98;;
17832;SDS011;9041;49.718;21.798;2023-08-06T04:21:13;28.35;;;15.02;;
17832;SDS011;9041;49.718;21.798;2023-08-06T04:23:40;26.85;;;14.98;;
17832;SDS011;9041;49.718;21.798;2023-08-06T04:26:07;26.33;;;14.50;;
17832;SDS011;9041;49.718;21.798;2023-08-06T04:28:34;25.55;;;14.52;;
17832;SDS011;9041;49.718;21.798;2023-08-06T04:31:02;24.58;;;14.15;;
17832;SDS011;9041;49.718;21.798;2023-08-06T04:33:28;25.30;;;13.82;;
17832;SDS011;9041;49.718;21.798;2023-08-06T04:35:55;25.15;;;14.82;;
17832;SDS011;9041;49.718;21.798;2023-08-06T04:38:23;30.23;;;14.98;;
17832;SDS011;9041;49.718;21.798;2023-08-06T04:40:50;29.40;;;15.07;;
17832;SDS011;9041;49.718;21.798;2023-08-06T04:43:16;26.73;;;15.00;;
17832;SDS011;9041;49.718;21.798;2023-08-06T04:45:45;28.33;;;15.75;;
17832;SDS011;9041;49.718;21.798;2023-08-06T04:48:14;24.70;;;15.07;;
17832;SDS011;9041;49.718;21.798;2023-08-06T04:50:43;27.25;;;15.65;;
17832;SDS011;9041;49.718;21.798;2023-08-06T04:53:10;33.13;;;16.42;;
17832;SDS011;9041;49.718;21.798;2023-08-06T04:55:36;26.75;;;15.75;;
17832;SDS011;9041;49.718;21.798;2023-08-06T04:58:03;28.33;;;16.70;;
17832;SDS011;9041;49.718;21.798;2023-08-06T05:00:30;31.10;;;17.33;;
17832;SDS011;9041;49.718;21.798;2023-08-06T05:02:56;27.55;;;16.77;;
17832;SDS011;9041;49.718;21.798;2023-08-06T05:05:25;31.10;;;17.35;;
17832;SDS011;9041;49.718;21.798;2023-08-06T05:07:53;27.77;;;16.35;;
17832;SDS011;9041;49.718;21.798;2023-08-06T05:10:20;28.63;;;16.48;;
17832;SDS011;9041;49.718;21.798;2023-08-06T05:12:47;30.40;;;17.45;;
17832;SDS011;9041;49.718;21.798;2023-08-06T05:15:14;31.60;;;16.90;;
17832;SDS011;9041;49.718;21.798;2023-08-06T05:17:41;31.00;;;17.50;;
17832;SDS011;9041;49.718;21.798;2023-08-06T05:20:08;32.75;;;17.27;;
17832;SDS011;9041;49.718;21.798;2023-08-06T05:22:36;27.85;;;15.70;;
17832;SDS011;9041;49.718;21.798;2023-08-06T05:25:04;25.98;;;16.02;;
17832;SDS011;9041;49.718;21.798;2023-08-06T05:27:31;31.45;;;17.35;;
17832;SDS011;9041;49.718;21.798;2023-08-06T05:29:58;30.58;;;15.68;;
17832;SDS011;9041;49.718;21.798;2023-08-06T05:32:25;28.50;;;16.05;;
17832;SDS011;9041;49.718;21.798;2023-08-06T05:34:51;28.25;;;16.38;;
17832;SDS011;9041;49.718;21.798;2023-08-06T05:37:18;30.50;;;16.58;;
17832;SDS011;9041;49.718;21.798;2023-08-06T05:39:46;25.02;;;16.00;;
17832;SDS011;9041;49.718;21.798;2023-08-06T05:42:13;29.10;;;15.18;;
17832;SDS011;9041;49.718;21.798;2023-08-06T05:44:40;28.05;;;16.65;;
17832;SDS011;9041;49.718;21.798;2023-08-06T05:47:06;23.80;;;14.77;;
17832;SDS011;9041;49.718;21.798;2023-08-06T05:49:34;25.40;;;15.23;;
17832;SDS011;9041;49.718;21.798;2023-08-06T05:52:00;20.58;;;13.18;;
17832;SDS011;9041;49.718;21.798;2023-08-06T05:54:31;28.38;;;15.10;;
17832;SDS011;9041;49.718;21.798;2023-08-06T05:56:59;21.92;;;14.15;;
17832;SDS011;9041;49.718;21.798;2023-08-06T05:59:25;22.45;;;14.10;;
17832;SDS011;9041;49.718;21.798;2023-08-06T06:01:52;25.30;;;13.85;;
17832;SDS011;9041;49.718;21.798;2023-08-06T06:04:19;24.25;;;14.18;;
17832;SDS011;9041;49.718;21.798;2023-08-06T06:06:45;23.75;;;14.48;;
17832;SDS011;9041;49.718;21.798;2023-08-06T06:09:12;27.13;;;14.15;;
17832;SDS011;9041;49.718;21.798;2023-08-06T06:11:39;24.13;;;14.35;;
17832;SDS011;9041;49.718;21.798;2023-08-06T06:14:07;18.92;;;13.48;;
17832;SDS011;9041;49.718;21.798;2023-08-06T06:16:33;21.88;;;13.70;;
17832;SDS011;9041;49.718;21.798;2023-08-06T06:19:00;20.02;;;12.30;;
17832;SDS011;9041;49.718;21.798;2023-08-06T06:21:26;22.23;;;13.02;;
17832;SDS011;9041;49.718;21.798;2023-08-06T06:23:53;18.30;;;11.55;;
17832;SDS011;9041;49.718;21.798;2023-08-06T06:26:20;17.25;;;10.98;;
17832;SDS011;9041;49.718;21.798;2023-08-06T06:28:46;17.67;;;11.90;;
17832;SDS011;9041;49.718;21.798;2023-08-06T06:31:15;16.23;;;11.52;;
17832;SDS011;9041;49.718;21.798;2023-08-06T06:33:41;16.33;;;10.88;;
17832;SDS011;9041;49.718;21.798;2023-08-06T06:36:08;18.13;;;11.18;;
17832;SDS011;9041;49.718;21.798;2023-08-06T06:38:35;16.67;;;10.35;;
17832;SDS011;9041;49.718;21.798;2023-08-06T06:41:02;15.55;;;9.30;;
17832;SDS011;9041;49.718;21.798;2023-08-06T06:43:29;15.20;;;8.98;;
17832;SDS011;9041;49.718;21.798;2023-08-06T06:45:55;12.80;;;8.73;;
17832;SDS011;9041;49.718;21.798;2023-08-06T06:48:25;13.38;;;8.88;;
17832;SDS011;9041;49.718;21.798;2023-08-06T06:50:52;14.10;;;9.10;;
17832;SDS011;9041;49.718;21.798;2023-08-06T06:53:18;11.88;;;8.30;;
17832;SDS011;9041;49.718;21.798;2023-08-06T06:55:45;12.13;;;8.27;;
17832;SDS011;9041;49.718;21.798;2023-08-06T06:58:14;11.07;;;7.80;;
17832;SDS011;9041;49.718;21.798;2023-08-06T07:00:41;11.20;;;7.68;;
17832;SDS011;9041;49.718;21.798;2023-08-06T07:03:07;13.77;;;7.15;;
17832;SDS011;9041;49.718;21.798;2023-08-06T07:05:36;10.23;;;7.22;;
17832;SDS011;9041;49.718;21.798;2023-08-06T07:08:02;11.18;;;7.03;;
17832;SDS011;9041;49.718;21.798;2023-08-06T07:10:29;9.90;;;7.05;;
17832;SDS011;9041;49.718;21.798;2023-08-06T07:12:55;10.90;;;7.20;;
17832;SDS011;9041;49.718;21.798;2023-08-06T07:15:22;8.93;;;6.75;;
17832;SDS011;9041;49.718;21.798;2023-08-06T07:17:49;11.30;;;7.00;;
17832;SDS011;9041;49.718;21.798;2023-08-06T07:20:15;9.43;;;6.70;;
17832;SDS011;9041;49.718;21.798;2023-08-06T07:22:44;9.77;;;7.22;;
17832;SDS011;9041;49.718;21.798;2023-08-06T07:25:11;10.90;;;6.97;;
17832;SDS011;9041;49.718;21.798;2023-08-06T07:27:38;10.25;;;7.07;;
17832;SDS011;9041;49.718;21.798;2023-08-06T07:30:05;10.07;;;7.18;;
17832;SDS011;9041;49.718;21.798;2023-08-06T07:32:33;10.48;;;7.03;;
17832;SDS011;9041;49.718;21.798;2023-08-06T07:34:59;11.00;;;6.78;;
17832;SDS011;9041;49.718;21.798;2023-08-06T07:37:27;8.38;;;6.28;;
17832;SDS011;9041;49.718;21.798;2023-08-06T07:39:56;9.68;;;6.57;;
17832;SDS011;9041;49.718;21.798;2023-08-06T07:42:23;11.52;;;6.35;;
17832;SDS011;9041;49.718;21.798;2023-08-06T07:44:51;9.70;;;6.93;;
17832;SDS011;9041;49.718;21.798;2023-08-06T07:47:18;8.23;;;6.45;;
17832;SDS011;9041;49.718;21.798;2023-08-06T07:49:45;8.93;;;6.18;;
17832;SDS011;9041;49.718;21.798;2023-08-06T07:52:12;9.73;;;6.07;;
17832;SDS011;9041;49.718;21.798;2023-08-06T07:54:39;13.20;;;6.53;;
17832;SDS011;9041;49.718;21.798;2023-08-06T07:57:07;8.98;;;6.55;;
17832;SDS011;9041;49.718;21.798;2023-08-06T07:59:34;9.05;;;6.30;;
17832;SDS011;9041;49.718;21.798;2023-08-06T08:02:00;8.88;;;6.68;;
17832;SDS011;9041;49.718;21.798;2023-08-06T08:04:27;12.25;;;6.28;;
17832;SDS011;9041;49.718;21.798;2023-08-06T08:06:53;10.90;;;5.82;;
17832;SDS011;9041;49.718;21.798;2023-08-06T08:09:20;7.93;;;6.25;;
17832;SDS011;9041;49.718;21.798;2023-08-06T08:11:47;8.93;;;6.30;;
17832;SDS011;9041;49.718;21.798;2023-08-06T08:14:14;8.35;;;6.15;;
17832;SDS011;9041;49.718;21.798;2023-08-06T08:16:41;7.88;;;6.18;;
17832;SDS011;9041;49.718;21.798;2023-08-06T08:19:08;7.00;;;5.78;;
17832;SDS011;9041;49.718;21.798;2023-08-06T08:21:35;8.10;;;6.22;;
17832;SDS011;9041;49.718;21.798;2023-08-06T08:24:03;14.27;;;7.28;;
17832;SDS011;9041;49.718;21.798;2023-08-06T08:26:30;8.55;;;6.03;;
17832;SDS011;9041;49.718;21.798;2023-08-06T08:28:57;7.60;;;5.28;;
17832;SDS011;9041;49.718;21.798;2023-08-06T08:31:25;5.22;;;4.18;;
17832;SDS011;9041;49.718;21.798;2023-08-06T08:33:53;5.45;;;3.92;;
17832;SDS011;9041;49.718;21.798;2023-08-06T08:36:20;7.50;;;3.85;;
17832;SDS011;9041;49.718;21.798;2023-08-06T08:38:46;7.85;;;3.78;;
17832;SDS011;9041;49.718;21.798;2023-08-06T08:41:14;5.63;;;3.65;;
17832;SDS011;9041;49.718;21.798;2023-08-06T08:43:42;3.55;;;3.00;;
17832;SDS011;9041;49.718;21.798;2023-08-06T08:46:09;2.97;;;2.55;;
17832;SDS011;9041;49.718;21.798;2023-08-06T08:48:37;7.13;;;2.45;;
17832;SDS011;9041;49.718;21.798;2023-08-06T08:51:04;4.40;;;3.22;;
17832;SDS011;9041;49.718;21.798;2023-08-06T08:53:33;4.95;;;2.97;;
17832;SDS011;9041;49.718;21.798;2023-08-06T08:55:59;3.42;;;2.58;;
17832;SDS011;9041;49.718;21.798;2023-08-06T08:58:26;3.53;;;2.58;;
17832;SDS011;9041;49.718;21.798;2023-08-06T09:00:52;4.50;;;2.63;;
17832;SDS011;9041;49.718;21.798;2023-08-06T09:03:19;2.33;;;2.00;;
17832;SDS011;9041;49.718;21.798;2023-08-06T09:05:49;2.05;;;1.75;;
17832;SDS011;9041;49.718;21.798;2023-08-06T09:08:18;1.83;;;1.50;;
17832;SDS011;9041;49.718;21.798;2023-08-06T09:10:45;1.70;;;1.27;;
17832;SDS011;9041;49.718;21.798;2023-08-06T09:13:14;1.45;;;1.20;;
17832;SDS011;9041;49.718;21.798;2023-08-06T09:15:41;5.07;;;1.52;;
17832;SDS011;9041;49.718;21.798;2023-08-06T09:18:09;1.88;;;1.58;;
17832;SDS011;9041;49.718;21.798;2023-08-06T09:20:37;1.25;;;1.15;;
17832;SDS011;9041;49.718;21.798;2023-08-06T09:23:08;3.33;;;1.50;;
17832;SDS011;9041;49.718;21.798;2023-08-06T09:25:36;5.10;;;1.60;;
17832;SDS011;9041;49.718;21.798;2023-08-06T09:28:04;14.63;;;1.70;;
17832;SDS011;9041;49.718;21.798;2023-08-06T09:30:31;11.25;;;1.40;;
17832;SDS011;9041;49.718;21.798;2023-08-06T09:32:58;2.17;;;1.10;;
17832;SDS011;9041;49.718;21.798;2023-08-06T09:35:27;40.47;;;3.00;;
17832;SDS011;9041;49.718;21.798;2023-08-06T09:37:58;1.50;;;1.27;;
17832;SDS011;9041;49.718;21.798;2023-08-06T09:40:33;2.83;;;1.30;;
17832;SDS011;9041;49.718;21.798;2023-08-06T09:43:00;1.88;;;1.48;;
17832;SDS011;9041;49.718;21.798;2023-08-06T09:45:28;7.13;;;1.60;;
17832;SDS011;9041;49.718;21.798;2023-08-06T09:47:56;1.35;;;1.00;;
17832;SDS011;9041;49.718;21.798;2023-08-06T09:50:23;1.83;;;1.08;;
17832;SDS011;9041;49.718;21.798;2023-08-06T09:52:55;2.40;;;1.27;;
17832;SDS011;9041;49.718;21.798;2023-08-06T09:55:22;4.03;;;0.80;;
17832;SDS011;9041;49.718;21.798;2023-08-06T09:57:51;1.40;;;1.00;;
17832;SDS011;9041;49.718;21.798;2023-08-06T10:00:19;2.38;;;1.00;;
17832;SDS011;9041;49.718;21.798;2023-08-06T10:02:46;2.92;;;1.15;;
17832;SDS011;9041;49.718;21.798;2023-08-06T10:05:14;4.85;;;1.58;;
17832;SDS011;9041;49.718;21.798;2023-08-06T10:07:42;1.38;;;1.20;;
17832;SDS011;9041;49.718;21.798;2023-08-06T10:10:10;1.35;;;1.23;;
17832;SDS011;9041;49.718;21.798;2023-08-06T10:12:37;2.67;;;1.15;;
17832;SDS011;9041;49.718;21.798;2023-08-06T10:15:08;2.17;;;1.23;;
17832;SDS011;9041;49.718;21.798;2023-08-06T10:17:36;1.10;;;1.00;;
17832;SDS011;9041;49.718;21.798;2023-08-06T10:20:04;1.08;;;0.90;;
17832;SDS011;9041;49.718;21.798;2023-08-06T10:22:33;3.55;;;1.10;;
17832;SDS011;9041;49.718;21.798;2023-08-06T10:25:00;2.17;;;1.10;;
17832;SDS011;9041;49.718;21.798;2023-08-06T10:27:30;2.83;;;1.25;;
17832;SDS011;9041;49.718;21.798;2023-08-06T10:32:52;3.65;;;1.38;;
17832;SDS011;9041;49.718;21.798;2023-08-06T10:35:32;1.58;;;1.17;;
17832;SDS011;9041;49.718;21.798;2023-08-06T10:38:14;1.75;;;1.40;;
17832;SDS011;9041;49.718;21.798;2023-08-06T10:40:42;2.05;;;1.23;;
17832;SDS011;9041;49.718;21.798;2023-08-06T10:43:11;1.77;;;1.20;;
17832;SDS011;9041;49.718;21.798;2023-08-06T10:45:52;2.67;;;1.02;;
17832;SDS011;9041;49.718;21.798;2023-08-06T10:48:28;1.80;;;1.27;;
17832;SDS011;9041;49.718;21.798;2023-08-06T10:50:55;1.40;;;1.30;;
17832;SDS011;9041;49.718;21.798;2023-08-06T10:53:22;1.23;;;1.13;;
17832;SDS011;9041;49.718;21.798;2023-08-06T10:55:49;1.38;;;1.20;;
17832;SDS011;9041;49.718;21.798;2023-08-06T10:58:15;2.03;;;1.30;;
17832;SDS011;9041;49.718;21.798;2023-08-06T11:00:42;1.48;;;1.23;;
17832;SDS011;9041;49.718;21.798;2023-08-06T11:03:10;2.22;;;1.05;;
17832;SDS011;9041;49.718;21.798;2023-08-06T11:05:37;3.55;;;1.10;;
17832;SDS011;9041;49.718;21.798;2023-08-06T11:08:04;1.35;;;1.00;;
17832;SDS011;9041;49.718;21.798;2023-08-06T11:10:32;1.40;;;0.90;;
17832;SDS011;9041;49.718;21.798;2023-08-06T11:13:00;0.82;;;0.70;;
17832;SDS011;9041;49.718;21.798;2023-08-06T11:15:27;1.00;;;0.90;;
17832;SDS011;9041;49.718;21.798;2023-08-06T11:17:54;1.40;;;0.80;;
17832;SDS011;9041;49.718;21.798;2023-08-06T11:20:22;1.67;;;0.80;;
17832;SDS011;9041;49.718;21.798;2023-08-06T11:22:49;5.70;;;1.00;;
17832;SDS011;9041;49.718;21.798;2023-08-06T11:25:19;2.72;;;0.93;;
17832;SDS011;9041;49.718;21.798;2023-08-06T11:27:47;5.25;;;1.10;;
17832;SDS011;9041;49.718;21.798;2023-08-06T11:30:14;2.83;;;0.90;;
17832;SDS011;9041;49.718;21.798;2023-08-06T11:32:47;2.60;;;0.95;;
17832;SDS011;9041;49.718;21.798;2023-08-06T11:35:14;3.67;;;0.90;;
17832;SDS011;9041;49.718;21.798;2023-08-06T11:37:44;1.92;;;1.00;;
17832;SDS011;9041;49.718;21.798;2023-08-06T11:40:12;0.80;;;0.73;;
17832;SDS011;9041;49.718;21.798;2023-08-06T11:42:40;1.15;;;0.85;;
17832;SDS011;9041;49.718;21.798;2023-08-06T11:45:07;1.58;;;0.90;;
17832;SDS011;9041;49.718;21.798;2023-08-06T11:47:37;0.95;;;0.70;;
17832;SDS011;9041;49.718;21.798;2023-08-06T11:50:07;1.33;;;0.85;;
17832;SDS011;9041;49.718;21.798;2023-08-06T11:52:34;1.30;;;1.00;;
17832;SDS011;9041;49.718;21.798;2023-08-06T11:55:09;2.53;;;1.00;;
17832;SDS011;9041;49.718;21.798;2023-08-06T11:57:49;2.95;;;1.10;;
17832;SDS011;9041;49.718;21.798;2023-08-06T12:00:16;1.50;;;0.90;;
17832;SDS011;9041;49.718;21.798;2023-08-06T12:02:43;0.90;;;0.90;;
17832;SDS011;9041;49.718;21.798;2023-08-06T12:05:11;0.93;;;0.85;;
17832;SDS011;9041;49.718;21.798;2023-08-06T12:07:38;1.02;;;0.80;;
17832;SDS011;9041;49.718;21.798;2023-08-06T12:10:27;1.20;;;0.80;;
17832;SDS011;9041;49.718;21.798;2023-08-06T12:12:56;1.75;;;1.05;;
17832;SDS011;9041;49.718;21.798;2023-08-06T12:15:23;1.50;;;0.70;;
17832;SDS011;9041;49.718;21.798;2023-08-06T12:17:50;1.17;;;0.90;;
17832;SDS011;9041;49.718;21.798;2023-08-06T12:20:17;1.88;;;0.73;;
17832;SDS011;9041;49.718;21.798;2023-08-06T12:22:43;1.67;;;0.90;;
17832;SDS011;9041;49.718;21.798;2023-08-06T12:25:11;1.08;;;0.82;;
17832;SDS011;9041;49.718;21.798;2023-08-06T12:27:39;0.80;;;0.80;;
17832;SDS011;9041;49.718;21.798;2023-08-06T12:30:07;1.30;;;0.90;;
17832;SDS011;9041;49.718;21.798;2023-08-06T12:32:34;1.33;;;0.90;;
17832;SDS011;9041;49.718;21.798;2023-08-06T12:35:01;1.23;;;0.90;;
17832;SDS011;9041;49.718;21.798;2023-08-06T12:37:28;5.13;;;1.73;;
17832;SDS011;9041;49.718;21.798;2023-08-06T12:39:55;1.20;;;1.10;;
17832;SDS011;9041;49.718;21.798;2023-08-06T12:42:22;1.10;;;0.82;;
17832;SDS011;9041;49.718;21.798;2023-08-06T12:44:50;1.50;;;0.88;;
17832;SDS011;9041;49.718;21.798;2023-08-06T12:47:17;2.25;;;0.95;;
17832;SDS011;9041;49.718;21.798;2023-08-06T12:49:47;1.52;;;0.90;;
17832;SDS011;9041;49.718;21.798;2023-08-06T12:52:14;1.65;;;0.85;;
17832;SDS011;9041;49.718;21.798;2023-08-06T12:54:41;2.25;;;0.88;;
17832;SDS011;9041;49.718;21.798;2023-08-06T12:57:08;4.65;;;0.95;;
17832;SDS011;9041;49.718;21.798;2023-08-06T12:59:34;1.00;;;0.90;;
17832;SDS011;9041;49.718;21.798;2023-08-06T13:02:03;2.38;;;1.25;;
17832;SDS011;9041;49.718;21.798;2023-08-06T13:04:30;1.10;;;0.90;;
17832;SDS011;9041;49.718;21.798;2023-08-06T13:06:59;0.80;;;0.80;;
17832;SDS011;9041;49.718;21.798;2023-08-06T13:09:26;2.55;;;0.88;;
17832;SDS011;9041;49.718;21.798;2023-08-06T13:11:52;4.35;;;0.90;;
17832;SDS011;9041;49.718;21.798;2023-08-06T13:14:23;0.93;;;0.93;;
17832;SDS011;9041;49.718;21.798;2023-08-06T13:16:50;1.88;;;0.90;;
17832;SDS011;9041;49.718;21.798;2023-08-06T13:19:18;1.05;;;0.77;;
17832;SDS011;9041;49.718;21.798;2023-08-06T13:21:58;2.28;;;1.00;;
17832;SDS011;9041;49.718;21.798;2023-08-06T13:24:25;2.17;;;1.20;;
17832;SDS011;9041;49.718;21.798;2023-08-06T13:26:52;1.52;;;0.93;;
17832;SDS011;9041;49.718;21.798;2023-08-06T13:29:19;1.55;;;1.13;;
17832;SDS011;9041;49.718;21.798;2023-08-06T13:31:46;4.82;;;1.83;;
17832;SDS011;9041;49.718;21.798;2023-08-06T13:34:13;1.38;;;1.00;;
17832;SDS011;9041;49.718;21.798;2023-08-06T13:36:43;3.63;;;0.90;;
17832;SDS011;9041;49.718;21.798;2023-08-06T13:39:09;2.60;;;0.80;;
17832;SDS011;9041;49.718;21.798;2023-08-06T13:41:41;4.28;;;1.15;;
17832;SDS011;9041;49.718;21.798;2023-08-06T13:44:08;1.00;;;0.70;;
17832;SDS011;9041;49.718;21.798;2023-08-06T13:46:35;1.65;;;0.70;;
17832;SDS011;9041;49.718;21.798;2023-08-06T13:49:02;2.95;;;0.80;;
17832;SDS011;9041;49.718;21.798;2023-08-06T13:51:29;2.42;;;0.90;;
17832;SDS011;9041;49.718;21.798;2023-08-06T13:53:56;1.17;;;0.88;;
17832;SDS011;9041;49.718;21.798;2023-08-06T13:56:23;1.00;;;0.80;;
17832;SDS011;9041;49.718;21.798;2023-08-06T13:58:50;1.38;;;0.80;;
17832;SDS011;9041;49.718;21.798;2023-08-06T14:01:17;3.30;;;1.33;;
17832;SDS011;9041;49.718;21.798;2023-08-06T14:03:44;2.40;;;1.10;;
17832;SDS011;9041;49.718;21.798;2023-08-06T14:06:11;2.05;;;1.02;;
17832;SDS011;9041;49.718;21.798;2023-08-06T14:08:37;1.65;;;1.00;;
17832;SDS011;9041;49.718;21.798;2023-08-06T14:11:06;3.33;;;1.00;;
17832;SDS011;9041;49.718;21.798;2023-08-06T14:13:32;1.10;;;0.88;;
17832;SDS011;9041;49.718;21.798;2023-08-06T14:15:59;2.03;;;0.77;;
17832;SDS011;9041;49.718;21.798;2023-08-06T14:18:26;2.15;;;0.90;;
17832;SDS011;9041;49.718;21.798;2023-08-06T14:20:52;2.60;;;0.63;;
17832;SDS011;9041;49.718;21.798;2023-08-06T14:23:19;1.42;;;0.90;;
17832;SDS011;9041;49.718;21.798;2023-08-06T14:25:46;1.50;;;0.85;;
17832;SDS011;9041;49.718;21.798;2023-08-06T14:28:14;1.25;;;0.60;;
17832;SDS011;9041;49.718;21.798;2023-08-06T14:30:40;1.67;;;0.70;;
17832;SDS011;9041;49.718;21.798;2023-08-06T14:33:07;0.63;;;0.60;;
17832;SDS011;9041;49.718;21.798;2023-08-06T14:35:34;1.52;;;0.75;;
17832;SDS011;9041;49.718;21.798;2023-08-06T14:38:01;1.25;;;0.60;;
17832;SDS011;9041;49.718;21.798;2023-08-06T14:40:27;0.80;;;0.73;;